Terminal Aerodrome Forecast
Issued by NWS Sioux Falls, SD

Home | Current Version | Previous Version | Text Only | Print | Product List | Glossary On
Versions: 1 2 3 4 5 6 7 8 9 10 11 12 13 14 15 16 17 18 19 20 21 22 23 24 25 26 27 28 29
000
FTUS43 KFSD 281132
TAFSUX
TAF
KSUX 281132Z 2812/2912 15004KT P6SM SKC
     FM281400 VRB04KT P6SM SCT080
     FM281800 03007KT P6SM SCT015 SCT050 BKN180
     FM282000 05009KT P6SM OVC015
     FM290300 04010KT P6SM -SN OVC025
      TEMPO 2909/2912 4SM -SN OVC015=

USA.gov is the U.S. government's official web portal to all federal, state and local government web resources and services.